Hovedside
METAR-TAF:

METAR-TAF

Lufthavner :

Notodden lufthavn

Notodden, Norge

breddegrad: 59-34N, lengdegrad: 009-13E, høyde over havet: 19 m

Gjeldene værobservasjon

Denne rapporten ble laget for 8 timer og 10 minutter siden, klokken 17:50 UTC
Vind 4 kt fra Vest
Temperatur 0°C
Luftfuktighet 93%
Trykk 1042 hPa
Sikt 10 km eller mer
Få skyer i en høyde lavere enn 100 ft

METAR: ENNO 181750Z 28004KT 9999 FEW000 M00/M01 Q1042

Tid: 03:00 (02:00 UTC)

Varsel

Denne rapporten ble laget for 8 timer og 34 minutter siden, klokken 17:26 UTC
Varsel gyldig fra 18. klokken 17 UTC til 18. klokken 18 UTC
Vind 2 kt fra skiftende retning
Sikt 10 km eller mer
ingen skyer under 1500 m og ingen bygeskyer
Sannsynlighet 40%
fra 18. klokken 17 UTC til 18. klokken 18 UTC
Sikt: 0800 m
i en høyde av 100 ft
tåke

TAF: ENNO 181726Z 1817/1818 VRB02KT CAVOK PROB40 1817/1818 0800 FG VV001

Værobservasjoner og værvarsel for over 4000 flyplasser (METAR- og TAF-rapporter).

Tilgjengelige stasjoner er representert av de røde og gule prikkene på kartet.

Hold musepekeren over prikken for å se navnet på stasjonen.

Klikk så for å se værobservasjoner og -varsler.

For å forandre kartet kan du klikke på den grønne knappen med svart kryss for å zoome inn, på den grønne knappen med strek for å zoome ut, eller på de grønne pilene for å se tilstøtende kart.


METAR-TAF: